Swanson Ranch 3, NV

12:08 PM PST en Diciembre 21, 2014 (GMT -0800)
Eureka | Change Station
CLOSE
Current Station
Aeropuerto
Location: Eureka,
Altura: 5945 ft
Estaciones meteorológicas cercanas

Alt 5945 ft 39.60 °N, 116.01 °W | Updated 15 minutes ago

Nublado
Nublado
51 ° F
Sensación térmica 51 ° F
N
7
Viento Variable Viento desde ONO
Gusts 24 mph

Hoy
Alta -- | Baja -- ° F
--% Posibilidad de precipitaciones
Ayer
Alta -- | Baja -- ° F
Precip. -- pul
7:07 AM 4:27 PM
Creciente menguante, 0% visible
Presión 30.06 pul
Visibilidad -9999.0 Millas
Nubes
Punto de rocío 38 ° F
Humedad 61%
Precipitaciones 0.00 pul
Espesor de la nieve No disponible.
UV No disponible.
Polen .10 de una escala de 12
Calidad del aire No disponible.
Flu Activity No disponible.
METAR KP68 211953Z AUTO 29006KT 11/03 A3015 RMK AO1 SLP178 T01060033

More Conditions Fewer Conditions

Presión 30.06 pul
Visibilidad -9999.0 Millas
Nubes
Punto de rocío 38 ° F
Humedad 61%
Precipitaciones 0.00 pul
Espesor de la nieve No disponible.
UV No disponible.
Polen .10 de una escala de 12
Calidad del aire No disponible.
Flu Activity No disponible.
METAR KP68 211953Z AUTO 29006KT 11/03 A3015 RMK AO1 SLP178 T01060033

More Conditions Fewer Conditions

10-Day Weather Forecast

Almanac

Astronomía

Dec. 21, 2014 Salida Puesta
Hora real
Crepúsculo civil
Crepúsculo náutico
Crepúsculo astronómico
Luna
Horas de luz
Horas de luz
Tomorrow will be .
, % of the Moon is Illuminated

Extremos de hoy

Máximos del estado Bajos del estado

Community

WunderPhotos

Upload Photos

1,779,471 ¡fotos cargadas!

WunderBlogs® & News

Nearby

Calidad del aire

  Calidad del aire Índice AQ Contaminante
Not available.

Grosos de nieve

Estación Profundido Altura

Actividad de terremotos

Ciudad Distance Mag. Tiempo y dato
Magnitud mínima muestra es 2,5.

Temperaturas de aguas costeras

Lugar Temperatura

Estaciones meteorológicas cercanas